Time;durP1;ratioP1;P1;durP2;ratioP2;P2;SDS_P1;SDS_P2;PMS_P1;PMS_P2;Temp;Humidity;BMP_temperature;BMP_pressure;BME280_temperature;BME280_humidity;BME280_pressure;Samples;Min_cycle;Max_cycle;Signal;HPM_P1;HPM_P2
2024/01/16 00:01:21;;;;;;;2.97;2.10;;;-1.20;99.90;;;-2.33;100.00;96638.19;4996245;28;20273;-36
2024/01/16 00:03:47;;;;;;;4.70;2.40;;;-1.10;99.90;;;-2.25;100.00;96641.63;4992024;28;20077;-35
2024/01/16 00:06:13;;;;;;;5.25;2.28;;;-1.10;99.90;;;-2.24;100.00;96643.34;4993320;28;20050;-36
2024/01/16 00:08:39;;;;;;;4.28;2.17;;;-1.10;99.90;;;-2.26;100.00;96634.75;4993393;28;20071;-36
2024/01/16 00:11:05;;;;;;;5.75;2.80;;;-1.10;99.90;;;-2.23;100.00;96634.72;4987472;28;20602;-36
2024/01/16 00:13:33;;;;;;;4.05;2.28;;;-1.10;99.90;;;-2.24;100.00;96637.31;4992885;28;20040;-35
2024/01/16 00:15:59;;;;;;;5.82;2.17;;;-1.10;99.90;;;-2.22;100.00;96640.78;4993750;28;20056;-33
2024/01/16 00:18:24;;;;;;;6.78;2.80;;;-1.10;99.90;;;-2.26;100.00;96637.31;4995942;28;20462;-33
2024/01/16 00:20:50;;;;;;;5.10;2.65;;;-1.10;99.90;;;-2.33;100.00;96633.88;4991027;28;20092;-34
2024/01/16 00:23:16;;;;;;;6.82;2.75;;;-1.20;99.90;;;-2.41;100.00;96639.88;4996143;28;20570;-34
2024/01/16 00:25:41;;;;;;;4.00;2.20;;;-1.20;99.90;;;-2.42;100.00;96645.88;4990407;28;20038;-34
2024/01/16 00:28:07;;;;;;;7.13;2.38;;;-1.30;99.90;;;-2.49;100.00;96645.03;4995903;28;20088;-34
2024/01/16 00:30:33;;;;;;;11.18;2.83;;;-1.40;99.90;;;-2.60;100.00;96626.03;4996343;28;20450;-35
2024/01/16 00:32:59;;;;;;;4.78;2.55;;;-1.40;99.90;;;-2.59;100.00;96625.19;4964368;28;1021432;-35
2024/01/16 00:35:25;;;;;;;7.20;2.40;;;-1.40;99.90;;;-2.53;100.00;96640.69;4999552;28;20482;-35
2024/01/16 00:37:52;;;;;;;4.57;2.47;;;-1.40;99.90;;;-2.48;100.00;96643.28;5001676;28;20045;-35
2024/01/16 00:40:17;;;;;;;5.35;2.67;;;-1.40;99.90;;;-2.49;100.00;96647.63;5001221;28;20898;-35
2024/01/16 00:42:43;;;;;;;9.55;2.83;;;-1.40;99.90;;;-2.47;100.00;96634.72;4996869;28;20663;-35
2024/01/16 00:45:09;;;;;;;5.25;2.47;;;-1.40;99.90;;;-2.50;100.00;96644.16;4999955;28;20437;-35
2024/01/16 00:47:34;;;;;;;7.78;2.88;;;-1.40;99.90;;;-2.51;100.00;96623.50;5003102;28;20061;-35
2024/01/16 00:50:01;;;;;;;8.27;3.05;;;-1.40;99.90;;;-2.49;100.00;96632.13;4999327;28;20038;-35
2024/01/16 00:52:27;;;;;;;4.22;2.28;;;-1.40;99.90;;;-2.49;100.00;96632.13;4999787;28;20037;-34
2024/01/16 00:54:53;;;;;;;5.57;2.50;;;-1.40;99.90;;;-2.47;100.00;96637.28;4996833;28;20048;-35
2024/01/16 00:57:19;;;;;;;3.97;2.42;;;-1.40;99.90;;;-2.49;100.00;96639.88;4994769;28;20057;-34
2024/01/16 00:59:46;;;;;;;8.25;2.67;;;-1.40;99.90;;;-2.54;100.00;96611.44;5000846;28;20041;-36
2024/01/16 01:02:12;;;;;;;4.45;2.40;;;-1.30;99.90;;;-2.48;100.00;96617.47;5000845;28;20121;-35
2024/01/16 01:04:38;;;;;;;4.85;2.50;;;-1.30;99.90;;;-2.41;100.00;96626.97;4995081;28;20018;-33
2024/01/16 01:07:04;;;;;;;5.93;3.00;;;-1.30;99.90;;;-2.35;100.00;96632.13;4998662;28;20030;-34
2024/01/16 01:09:32;;;;;;;5.65;2.90;;;-1.20;99.90;;;-2.29;100.00;96636.47;4992817;28;20149;-34
2024/01/16 01:11:58;;;;;;;8.05;2.80;;;-1.20;99.90;;;-2.28;100.00;96636.44;4992359;28;20506;-34
2024/01/16 01:14:25;;;;;;;7.07;2.70;;;-1.20;99.90;;;-2.24;100.00;96627.84;4994333;28;20038;-34
2024/01/16 01:16:51;;;;;;;8.00;3.30;;;-1.10;99.90;;;-2.21;100.00;96630.41;4996086;28;20026;-34
2024/01/16 01:19:17;;;;;;;5.85;2.28;;;-1.10;99.90;;;-2.19;100.00;96639.06;5000252;28;20166;-34
2024/01/16 01:21:42;;;;;;;5.75;2.80;;;-1.10;99.90;;;-2.20;100.00;96637.31;4998389;28;20030;-35
2024/01/16 01:24:09;;;;;;;8.65;2.88;;;-1.10;99.90;;;-2.34;100.00;96615.78;5003263;28;20029;-35
2024/01/16 01:26:34;;;;;;;7.15;2.83;;;-1.10;99.90;;;-2.31;100.00;96641.63;5000386;28;20033;-34
2024/01/16 01:29:00;;;;;;;4.13;2.63;;;-1.20;99.90;;;-2.40;100.00;96633.84;4996501;28;20037;-35
2024/01/16 01:31:26;;;;;;;5.50;2.50;;;-1.30;99.90;;;-2.51;100.00;96651.91;5002033;28;20057;-35
2024/01/16 01:33:51;;;;;;;4.65;3.03;;;-1.40;99.90;;;-2.51;100.00;96647.59;4993110;28;20478;-35
2024/01/16 01:36:17;;;;;;;9.07;2.83;;;-1.40;99.90;;;-2.57;100.00;96655.31;4997431;28;20520;-35
2024/01/16 01:38:43;;;;;;;5.40;2.92;;;-1.40;99.90;;;-2.58;100.00;96648.44;4999075;28;20026;-34
2024/01/16 01:41:11;;;;;;;7.05;2.80;;;-1.40;99.90;;;-2.50;100.00;96657.06;4996400;28;20110;-35
2024/01/16 01:43:37;;;;;;;5.07;2.35;;;-1.40;99.90;;;-2.52;100.00;96652.75;4997748;28;20030;-35
2024/01/16 01:46:14;;;;;;;6.40;2.75;;;-1.40;99.90;;;-2.46;100.00;96655.34;4996321;28;20033;-34
2024/01/16 01:48:41;;;;;;;4.70;2.33;;;-1.40;99.90;;;-2.57;100.00;96660.47;4998106;28;20029;-35
2024/01/16 01:51:12;;;;;;;3.83;2.67;;;-1.40;99.90;;;-2.63;100.00;96650.16;4999623;28;20045;-34
2024/01/16 01:53:39;;;;;;;7.20;3.05;;;-1.50;99.90;;;-2.62;100.00;96657.06;5000140;28;20117;-34
2024/01/16 01:56:11;;;;;;;9.35;2.88;;;-1.40;99.90;;;-2.53;100.00;96664.81;4990475;28;20124;-35
2024/01/16 01:58:38;;;;;;;7.75;2.58;;;-1.40;99.90;;;-2.58;100.00;96682.00;4981328;28;20390;-34
2024/01/16 02:01:05;;;;;;;6.32;2.83;;;-1.50;99.90;;;-2.63;100.00;96668.22;4997912;28;20038;-34
2024/01/16 02:03:40;;;;;;;5.53;2.40;;;-1.50;99.90;;;-2.70;100.00;96669.06;4997924;28;20033;-34
2024/01/16 02:06:07;;;;;;;8.95;2.70;;;-1.60;99.90;;;-2.70;100.00;96675.06;4998331;28;20037;-34
2024/01/16 02:08:33;;;;;;;9.15;3.00;;;-1.60;99.90;;;-2.83;100.00;96662.13;4999856;28;20029;-34
2024/01/16 02:10:59;;;;;;;6.57;2.63;;;-1.60;99.90;;;-2.86;100.00;96664.69;4980260;28;20022;-33
2024/01/16 02:13:24;;;;;;;7.80;3.00;;;-1.70;99.90;;;-3.00;100.00;96675.81;4996690;28;20038;-34
2024/01/16 02:15:50;;;;;;;7.00;2.60;;;-1.80;99.90;;;-3.06;100.00;96683.53;4997187;28;20045;-34
2024/01/16 02:18:17;;;;;;;6.95;2.60;;;-1.90;99.90;;;-3.00;100.00;96686.13;4999411;28;20037;-35
2024/01/16 02:20:44;;;;;;;11.13;3.20;;;-1.90;99.90;;;-3.13;100.00;96684.34;4999748;28;20033;-34
2024/01/16 02:23:13;;;;;;;6.95;2.72;;;-2.00;99.90;;;-3.20;100.00;96687.75;4999890;28;20452;-36
2024/01/16 02:25:43;;;;;;;4.00;2.53;;;-2.00;99.90;;;-3.28;100.00;96682.56;4998922;28;20087;-36
2024/01/16 02:28:09;;;;;;;7.07;2.38;;;-2.10;99.90;;;-3.35;100.00;96681.66;4994054;28;20407;-35
2024/01/16 02:30:34;;;;;;;5.05;2.58;;;-2.20;99.90;;;-3.41;100.00;96679.06;4997123;28;20026;-36
2024/01/16 02:33:00;;;;;;;6.68;2.80;;;-2.30;99.90;;;-3.42;100.00;96679.88;4993326;28;20030;-35
2024/01/16 02:35:26;;;;;;;5.07;2.70;;;-2.30;99.90;;;-3.48;100.00;96677.28;5002372;28;23562;-35
2024/01/16 02:37:52;;;;;;;8.90;2.70;;;-2.30;99.90;;;-3.53;100.00;96686.69;5001568;28;20033;-35
2024/01/16 02:40:17;;;;;;;7.70;2.92;;;-2.40;99.90;;;-3.63;100.00;96679.75;4999108;28;20038;-35
2024/01/16 02:42:43;;;;;;;5.95;2.47;;;-2.40;99.90;;;-3.69;100.00;96678.84;4997689;28;20069;-35
2024/01/16 02:45:09;;;;;;;5.57;2.70;;;-2.50;99.90;;;-3.72;100.00;96673.66;5000698;28;20112;-35
2024/01/16 02:47:35;;;;;;;7.25;3.00;;;-2.50;99.90;;;-3.72;100.00;96683.97;4994723;28;20450;-35
2024/01/16 02:50:01;;;;;;;6.57;2.85;;;-2.60;99.90;;;-3.73;100.00;96687.41;4999378;28;20033;-35
2024/01/16 02:52:27;;;;;;;8.13;2.90;;;-2.60;99.90;;;-3.70;100.00;96682.25;4998121;28;20026;-35
2024/01/16 02:54:53;;;;;;;6.57;3.17;;;-2.60;99.90;;;-3.69;100.00;96681.41;4998306;28;20042;-35
2024/01/16 02:57:20;;;;;;;6.32;3.08;;;-2.60;99.90;;;-3.68;100.00;96695.16;4994624;28;20042;-36
2024/01/16 02:59:46;;;;;;;7.82;3.15;;;-2.60;99.90;;;-3.69;100.00;96684.00;4995231;28;20030;-36
2024/01/16 03:02:11;;;;;;;6.07;2.83;;;-2.60;99.90;;;-3.63;100.00;96687.47;4998502;28;20030;-33
2024/01/16 03:04:37;;;;;;;6.50;2.80;;;-2.50;99.90;;;-3.74;100.00;96690.81;4998540;28;20044;-33
2024/01/16 03:07:03;;;;;;;7.72;2.63;;;-2.60;99.90;;;-3.79;100.00;96669.31;4994739;28;20063;-33
2024/01/16 03:09:29;;;;;;;6.10;3.05;;;-2.50;99.90;;;-3.68;100.00;96693.47;4974955;28;20113;-35
2024/01/16 03:11:55;;;;;;;6.63;2.83;;;-2.60;99.90;;;-3.71;100.00;96685.72;4989482;28;20056;-34
2024/01/16 03:14:21;;;;;;;7.10;2.70;;;-2.60;99.90;;;-3.72;100.00;96694.28;4995133;28;20433;-34
2024/01/16 03:16:47;;;;;;;10.02;3.92;;;-2.60;99.90;;;-3.75;100.00;96689.13;5000007;28;20033;-34
2024/01/16 03:19:13;;;;;;;5.35;2.83;;;-2.60;99.90;;;-3.74;100.00;96684.81;4994879;28;20152;-34
2024/01/16 03:21:39;;;;;;;5.85;2.67;;;-2.60;99.90;;;-3.92;100.00;96659.78;4998850;28;20085;-34
2024/01/16 03:24:10;;;;;;;6.65;2.70;;;-2.60;99.90;;;-3.79;100.00;96687.34;4990882;28;20038;-33
2024/01/16 03:26:37;;;;;;;7.70;2.88;;;-2.60;99.90;;;-3.77;100.00;96672.75;4997009;28;20029;-34
2024/01/16 03:29:02;;;;;;;6.15;2.60;;;-2.60;99.90;;;-3.73;100.00;96687.41;4991187;28;20037;-34
2024/01/16 03:31:28;;;;;;;4.50;2.70;;;-2.60;99.90;;;-3.81;100.00;96699.34;4998239;28;20053;-34
2024/01/16 03:33:54;;;;;;;6.45;2.85;;;-2.60;99.90;;;-3.88;100.00;96698.44;4992730;28;20125;-34
2024/01/16 03:36:20;;;;;;;5.93;2.90;;;-2.60;99.90;;;-3.87;100.00;96704.47;4997084;28;20044;-34
2024/01/16 03:38:45;;;;;;;5.68;2.70;;;-2.70;99.90;;;-3.95;100.00;96701.81;4995285;28;20049;-35
2024/01/16 03:41:12;;;;;;;7.07;2.42;;;-2.70;99.90;;;-3.99;100.00;96699.22;4993201;28;20116;-34
2024/01/16 03:43:37;;;;;;;8.38;3.08;;;-2.80;99.90;;;-4.04;100.00;96694.91;4993967;28;20395;-35
2024/01/16 03:46:03;;;;;;;5.32;2.90;;;-2.90;99.90;;;-4.09;100.00;96706.84;4995147;28;20038;-35
2024/01/16 03:48:29;;;;;;;6.50;2.60;;;-2.90;99.90;;;-4.16;100.00;96692.19;4998662;28;20057;-34
2024/01/16 03:50:56;;;;;;;9.63;2.70;;;-2.90;99.90;;;-4.24;100.00;96696.41;4992472;28;20435;-35
2024/01/16 03:53:22;;;;;;;7.43;2.60;;;-3.10;99.90;;;-4.23;100.00;96690.41;4998555;28;20041;-35
2024/01/16 03:55:49;;;;;;;6.22;3.05;;;-3.10;99.90;;;-4.30;100.00;96678.34;4999657;28;20096;-35
2024/01/16 03:58:15;;;;;;;6.38;2.33;;;-3.10;99.90;;;-4.37;100.00;96690.28;4993833;28;20690;-33
2024/01/16 04:00:42;;;;;;;5.80;2.80;;;-3.20;99.90;;;-4.39;100.00;96683.41;4985067;28;20038;-34
2024/01/16 04:03:07;;;;;;;4.40;2.50;;;-3.10;99.90;;;-4.43;100.00;96691.06;4990022;28;20045;-34
2024/01/16 04:05:33;;;;;;;5.55;2.70;;;-3.20;99.90;;;-4.46;100.00;96688.47;4996892;28;20038;-34
2024/01/16 04:07:59;;;;;;;4.88;2.75;;;-3.30;99.90;;;-4.52;100.00;96683.25;4995546;28;20026;-35
2024/01/16 04:10:25;;;;;;;5.80;2.45;;;-3.30;99.90;;;-4.66;100.00;96661.66;4992963;28;20045;-35
2024/01/16 04:12:51;;;;;;;6.03;2.90;;;-3.40;99.90;;;-4.50;100.00;96683.28;4995966;28;20124;-35
2024/01/16 04:15:16;;;;;;;7.82;2.85;;;-3.30;99.90;;;-4.51;100.00;96684.13;4989584;28;20045;-35
2024/01/16 04:17:42;;;;;;;5.50;2.72;;;-3.30;99.90;;;-4.57;100.00;96679.78;4996347;28;20486;-35
2024/01/16 04:20:09;;;;;;;6.28;3.00;;;-3.40;99.90;;;-4.62;100.00;96686.56;4995051;28;20038;-34
2024/01/16 04:22:35;;;;;;;5.90;2.38;;;-3.40;99.90;;;-4.77;100.00;96670.94;5009635;28;20045;-34
2024/01/16 04:25:01;;;;;;;5.78;2.90;;;-3.40;99.90;;;-4.73;100.00;96673.59;4995153;28;20077;-34
2024/01/16 04:27:27;;;;;;;5.78;2.63;;;-3.50;99.90;;;-4.68;100.00;96683.94;4999043;28;20546;-35
2024/01/16 04:29:53;;;;;;;5.75;2.42;;;-3.50;99.90;;;-4.70;100.00;96681.34;4991724;28;20040;-35
2024/01/16 04:32:19;;;;;;;6.30;2.67;;;-3.50;99.90;;;-4.63;100.00;96677.13;4993810;28;20435;-35
2024/01/16 04:34:44;;;;;;;7.38;2.67;;;-3.40;99.90;;;-4.52;100.00;96672.09;4990139;28;20072;-35
2024/01/16 04:37:10;;;;;;;6.20;2.88;;;-3.40;99.90;;;-4.50;100.00;96670.41;4987671;28;20310;-34
2024/01/16 04:39:36;;;;;;;7.47;2.85;;;-3.30;99.90;;;-4.44;100.00;96668.75;4988377;28;20354;-35
2024/01/16 04:42:02;;;;;;;4.88;2.50;;;-3.30;99.90;;;-4.43;100.00;96669.63;4983506;28;20183;-33
2024/01/16 04:44:28;;;;;;;5.35;2.42;;;-3.20;99.90;;;-4.43;100.00;96667.91;4980843;28;20389;-34
2024/01/16 04:46:53;;;;;;;6.68;2.75;;;-3.30;99.90;;;-4.44;100.00;96668.75;4986693;28;20467;-34
2024/01/16 04:49:19;;;;;;;6.43;3.45;;;-3.30;99.90;;;-4.47;100.00;96666.16;4984915;28;20033;-34
2024/01/16 04:51:45;;;;;;;5.32;2.22;;;-3.30;99.90;;;-4.54;100.00;96659.22;4983068;28;20030;-34
2024/01/16 04:54:12;;;;;;;4.78;2.33;;;-3.30;99.90;;;-4.42;100.00;96663.63;4982034;28;20041;-34
2024/01/16 04:56:37;;;;;;;5.78;2.40;;;-3.20;99.90;;;-4.35;100.00;96674.84;4990067;28;20042;-34
2024/01/16 04:59:03;;;;;;;4.63;2.25;;;-3.20;99.90;;;-4.37;100.00;96666.25;4985641;28;21603;-34
2024/01/16 05:01:29;;;;;;;5.63;2.60;;;-3.20;99.90;;;-4.43;100.00;96657.63;4991015;28;20046;-33
2024/01/16 05:03:55;;;;;;;5.22;2.22;;;-3.20;99.90;;;-4.41;100.00;96661.06;4986965;28;20491;-34
2024/01/16 05:06:21;;;;;;;5.50;2.33;;;-3.20;99.90;;;-4.45;100.00;96659.31;4989794;28;20037;-34
2024/01/16 05:08:47;;;;;;;4.57;2.42;;;-3.20;99.90;;;-4.48;100.00;96658.44;4983776;28;20192;-34
2024/01/16 05:11:12;;;;;;;5.68;2.67;;;-3.30;99.90;;;-4.54;100.00;96658.34;4988456;28;20379;-34
2024/01/16 05:13:38;;;;;;;5.43;2.60;;;-3.30;99.90;;;-4.53;100.00;96667.81;4992274;28;20092;-34
2024/01/16 05:16:04;;;;;;;4.45;2.40;;;-3.30;99.90;;;-4.51;100.00;96672.09;4993550;28;20475;-34
2024/01/16 05:18:30;;;;;;;4.32;2.20;;;-3.30;99.90;;;-4.51;100.00;96671.25;4999710;28;20168;-34
2024/01/16 05:20:56;;;;;;;6.85;2.90;;;-3.30;99.90;;;-4.56;100.00;96676.34;4996471;28;20408;-34
2024/01/16 05:23:22;;;;;;;4.82;2.28;;;-3.30;99.90;;;-4.54;100.00;96664.38;4987615;28;20500;-34
2024/01/16 05:25:48;;;;;;;5.82;2.50;;;-3.30;99.90;;;-4.54;100.00;96664.38;4990878;28;20483;-33
2024/01/16 05:28:13;;;;;;;5.80;2.30;;;-3.30;99.90;;;-4.51;100.00;96654.09;4998775;28;20029;-34
2024/01/16 05:30:39;;;;;;;4.85;2.25;;;-3.30;99.90;;;-4.53;100.00;96655.78;4995889;28;20026;-34
2024/01/16 05:33:05;;;;;;;6.55;2.35;;;-3.30;99.90;;;-4.49;100.00;96656.69;4994297;28;20034;-34
2024/01/16 05:35:30;;;;;;;4.93;2.30;;;-3.30;99.90;;;-4.48;100.00;96648.97;4991986;28;20049;-34
2024/01/16 05:37:59;;;;;;;4.25;2.47;;;-3.30;99.90;;;-4.46;100.00;96639.56;4994490;28;20477;-34
2024/01/16 05:40:25;;;;;;;7.53;2.58;;;-3.30;99.90;;;-4.44;100.00;96645.59;4992988;28;20042;-34
2024/01/16 05:42:51;;;;;;;7.63;2.45;;;-3.20;99.90;;;-4.54;100.00;96617.16;4989642;28;20271;-34
2024/01/16 05:45:17;;;;;;;5.30;2.22;;;-3.20;99.90;;;-4.43;100.00;96643.91;4985502;28;20042;-34
2024/01/16 05:47:43;;;;;;;7.22;3.35;;;-3.30;99.90;;;-4.46;100.00;96642.13;4994186;28;20117;-34
2024/01/16 05:50:09;;;;;;;4.40;2.50;;;-3.20;99.90;;;-4.43;100.00;96638.75;4995108;28;20029;-34
2024/01/16 05:52:35;;;;;;;5.88;2.13;;;-3.20;99.90;;;-4.43;100.00;96644.75;4998042;28;20470;-34
2024/01/16 05:55:02;;;;;;;7.50;2.40;;;-3.20;99.90;;;-4.43;100.00;96631.03;4997231;28;20502;-34
2024/01/16 05:57:34;;;;;;;4.63;2.30;;;-3.20;99.90;;;-4.43;100.00;96631.88;5000990;28;20518;-34
2024/01/16 06:00:03;;;;;;;3.55;2.20;;;-3.20;99.90;;;-4.42;100.00;96630.16;4995739;28;20042;-34
2024/01/16 06:02:29;;;;;;;6.38;2.63;;;-3.20;99.90;;;-4.43;100.00;96642.16;4993657;28;20049;-34
2024/01/16 06:04:55;;;;;;;6.88;2.80;;;-3.20;99.90;;;-4.41;100.00;96635.31;5000789;28;20512;-34
2024/01/16 06:07:20;;;;;;;5.10;2.60;;;-3.30;99.90;;;-4.41;100.00;96645.63;4997435;28;20355;-34
2024/01/16 06:09:46;;;;;;;3.80;2.00;;;-3.20;99.90;;;-4.39;100.00;96647.38;4994772;28;20026;-34
2024/01/16 06:12:12;;;;;;;6.28;2.30;;;-3.20;99.90;;;-4.39;100.00;96642.22;4994136;28;20490;-34
2024/01/16 06:14:38;;;;;;;4.50;2.13;;;-3.20;99.90;;;-4.37;100.00;96638.78;4995659;28;20064;-34
2024/01/16 06:17:05;;;;;;;4.03;2.03;;;-3.20;99.90;;;-4.37;100.00;96630.22;5008446;28;20066;-34
2024/01/16 06:19:31;;;;;;;6.35;2.38;;;-3.20;99.90;;;-4.37;100.00;96635.38;4999350;28;20406;-34
2024/01/16 06:21:58;;;;;;;6.30;2.30;;;-3.10;99.90;;;-4.35;100.00;96644.81;5000110;28;20018;-34
2024/01/16 06:24:23;;;;;;;4.20;2.25;;;-3.10;99.90;;;-4.39;100.00;96631.91;4994382;28;20105;-34
2024/01/16 06:26:49;;;;;;;5.95;2.40;;;-3.10;99.90;;;-4.37;100.00;96627.63;4994175;28;20045;-34
2024/01/16 06:29:15;;;;;;;4.80;2.17;;;-3.20;99.90;;;-4.38;100.00;96629.31;4991686;28;20052;-34
2024/01/16 06:31:40;;;;;;;6.13;2.60;;;-3.20;99.90;;;-4.48;100.00;96618.09;4995380;28;20513;-35
2024/01/16 06:34:06;;;;;;;6.03;2.50;;;-3.20;99.90;;;-4.44;100.00;96617.28;4995356;28;20041;-35
2024/01/16 06:36:32;;;;;;;4.53;2.00;;;-3.20;99.90;;;-4.41;100.00;96631.91;4996829;28;20061;-35
2024/01/16 06:38:58;;;;;;;5.05;2.72;;;-3.20;99.90;;;-4.39;100.00;96643.06;4998857;28;20037;-35
2024/01/16 06:41:24;;;;;;;6.93;2.65;;;-3.20;99.90;;;-4.37;100.00;96636.22;4999672;28;20064;-35
2024/01/16 06:43:50;;;;;;;7.38;2.40;;;-3.20;99.90;;;-4.30;100.00;96647.44;4995025;28;20058;-35
2024/01/16 06:46:15;;;;;;;5.35;2.20;;;-3.10;99.90;;;-4.39;100.00;96629.34;4990918;28;20066;-35
2024/01/16 06:48:41;;;;;;;7.45;2.60;;;-3.10;99.90;;;-4.27;100.00;96642.28;4997547;28;20040;-35
2024/01/16 06:51:07;;;;;;;7.85;2.63;;;-3.00;99.90;;;-4.33;100.00;96624.25;4993389;28;20427;-35
2024/01/16 06:53:33;;;;;;;5.97;2.47;;;-3.00;99.90;;;-4.26;100.00;96631.16;5002402;28;20112;-34
2024/01/16 06:55:59;;;;;;;5.57;2.58;;;-3.00;99.90;;;-4.16;100.00;96651.00;4997237;28;20164;-33
2024/01/16 06:58:25;;;;;;;3.90;2.20;;;-2.90;99.90;;;-4.13;100.00;96651.00;5004865;28;20059;-35
2024/01/16 07:00:50;;;;;;;9.88;2.53;;;-2.90;99.90;;;-4.14;100.00;96643.28;4997560;28;20710;-35
2024/01/16 07:03:17;;;;;;;3.65;2.03;;;-2.90;99.90;;;-4.11;100.00;96649.34;5000331;28;20029;-35
2024/01/16 07:05:43;;;;;;;5.00;2.10;;;-2.90;99.90;;;-4.07;100.00;96652.78;5002488;28;20335;-35
2024/01/16 07:08:09;;;;;;;4.47;2.25;;;-2.90;99.90;;;-4.08;100.00;96657.06;4992898;28;20056;-33
2024/01/16 07:10:35;;;;;;;5.63;2.30;;;-2.90;99.90;;;-4.07;100.00;96665.66;4994754;28;20030;-36
2024/01/16 07:13:02;;;;;;;7.38;1.95;;;-2.90;99.90;;;-4.15;100.00;96644.13;4997257;28;20033;-35
2024/01/16 07:15:28;;;;;;;6.85;2.35;;;-2.90;99.90;;;-4.08;100.00;96649.34;4998801;28;20616;-35
2024/01/16 07:17:54;;;;;;;4.25;2.05;;;-2.90;99.90;;;-4.08;100.00;96651.91;4997922;28;20040;-35
2024/01/16 07:20:20;;;;;;;6.63;2.20;;;-2.90;99.90;;;-4.10;100.00;96650.19;4997374;28;20406;-35
2024/01/16 07:22:45;;;;;;;3.65;2.40;;;-2.90;99.90;;;-4.09;100.00;96654.47;4997671;28;20111;-35
2024/01/16 07:25:11;;;;;;;6.05;2.13;;;-2.90;99.90;;;-4.08;100.00;96648.47;4994665;28;20306;-35
2024/01/16 07:27:37;;;;;;;4.50;1.83;;;-2.90;99.90;;;-4.05;100.00;96645.94;4995425;28;20040;-35
2024/01/16 07:30:07;;;;;;;4.90;1.90;;;-2.90;99.90;;;-4.15;100.00;96642.41;4994982;28;20531;-35
2024/01/16 07:32:33;;;;;;;6.45;1.92;;;-2.90;99.90;;;-4.10;100.00;96651.03;4997178;28;20026;-35
2024/01/16 07:34:59;;;;;;;3.83;1.95;;;-2.90;99.90;;;-4.10;100.00;96650.19;4994296;28;20029;-35
2024/01/16 07:37:24;;;;;;;5.57;2.08;;;-2.90;99.90;;;-4.10;100.00;96657.91;4997730;28;20045;-33
2024/01/16 07:39:50;;;;;;;3.95;1.92;;;-2.90;99.90;;;-4.07;100.00;96651.06;4996473;28;20045;-34
2024/01/16 07:42:16;;;;;;;3.22;1.55;;;-2.90;99.90;;;-4.01;100.00;96646.81;4996100;28;20028;-34
2024/01/16 07:44:41;;;;;;;6.43;2.15;;;-2.80;99.90;;;-4.13;100.00;96630.41;4997705;28;20367;-34
2024/01/16 07:47:07;;;;;;;3.35;2.03;;;-2.80;99.90;;;-4.09;100.00;96621.88;4997604;28;20076;-34
2024/01/16 07:49:34;;;;;;;6.22;2.00;;;-2.80;99.90;;;-4.02;100.00;96630.50;4998359;28;20022;-34
2024/01/16 07:52:00;;;;;;;4.22;1.90;;;-2.70;99.90;;;-3.82;100.00;96643.53;4991588;28;20080;-35
2024/01/16 07:54:25;;;;;;;3.42;1.95;;;-2.60;99.90;;;-3.91;100.00;96631.47;4995869;28;20046;-34
2024/01/16 07:56:52;;;;;;;3.38;1.70;;;-2.60;99.90;;;-3.71;100.00;96647.06;4995556;28;20038;-33
2024/01/16 07:59:17;;;;;;;2.83;1.48;;;-2.50;99.90;;;-3.64;100.00;96647.97;4996518;28;20038;-33
2024/01/16 08:01:43;;;;;;;3.55;1.90;;;-2.50;99.90;;;-3.60;100.00;96647.13;5000067;28;20426;-33
2024/01/16 08:04:09;;;;;;;4.30;1.95;;;-2.40;99.90;;;-3.50;100.00;96654.06;4997655;28;20049;-35
2024/01/16 08:06:35;;;;;;;6.32;1.80;;;-2.30;99.90;;;-3.43;100.00;96652.38;4997694;28;20108;-33
2024/01/16 08:09:01;;;;;;;3.83;2.00;;;-2.30;99.90;;;-3.37;100.00;96647.25;4996684;28;20038;-33
2024/01/16 08:11:27;;;;;;;4.13;1.63;;;-2.20;99.90;;;-3.27;100.00;96645.59;4997549;28;20022;-34
2024/01/16 08:13:52;;;;;;;5.32;1.83;;;-2.10;99.90;;;-3.18;100.00;96642.19;4994355;28;20045;-34
2024/01/16 08:16:18;;;;;;;2.25;1.52;;;-2.00;99.90;;;-3.08;100.00;96652.56;4990404;28;20041;-34
2024/01/16 08:18:44;;;;;;;4.88;1.80;;;-1.90;99.90;;;-3.01;100.00;96645.72;4997935;28;20061;-34
2024/01/16 08:21:09;;;;;;;3.05;1.90;;;-1.80;99.90;;;-2.90;100.00;96641.47;4994276;28;20542;-34
2024/01/16 08:23:35;;;;;;;3.50;1.75;;;-1.80;99.90;;;-2.93;100.00;96631.13;4993434;28;20026;-34
2024/01/16 08:26:01;;;;;;;4.60;2.08;;;-1.70;99.90;;;-2.79;100.00;96632.91;4991774;28;20085;-34
2024/01/16 08:28:27;;;;;;;4.07;2.10;;;-1.60;99.90;;;-2.70;100.00;96654.41;4996795;28;20509;-34
2024/01/16 08:30:52;;;;;;;4.25;1.63;;;-1.50;99.90;;;-2.64;100.00;96651.00;4994867;28;20080;-34
2024/01/16 08:33:18;;;;;;;7.00;2.10;;;-1.50;99.90;;;-2.62;100.00;96649.31;4995209;28;20037;-34
2024/01/16 08:35:44;;;;;;;4.65;1.90;;;-1.40;99.90;;;-2.58;100.00;96651.03;4998418;28;20072;-34
2024/01/16 08:38:10;;;;;;;5.70;1.80;;;-1.40;99.90;;;-2.49;100.00;96660.53;4995859;28;20026;-34
2024/01/16 08:40:36;;;;;;;6.45;2.08;;;-1.40;99.90;;;-2.46;100.00;96670.84;5001746;28;20034;-34
2024/01/16 08:43:03;;;;;;;4.45;2.00;;;-1.30;99.90;;;-2.42;100.00;96667.41;4998419;28;20398;-34
2024/01/16 08:45:29;;;;;;;6.22;2.03;;;-1.30;99.90;;;-2.43;100.00;96660.53;4996473;28;20040;-34
2024/01/16 08:47:54;;;;;;;5.35;1.77;;;-1.20;99.90;;;-2.42;100.00;96663.97;4995493;28;20131;-34
2024/01/16 08:50:20;;;;;;;4.25;1.70;;;-1.20;99.90;;;-2.33;100.00;96664.84;5000399;28;20087;-34
2024/01/16 08:52:46;;;;;;;3.80;1.73;;;-1.20;99.90;;;-2.25;100.00;96674.34;4995991;28;20502;-34
2024/01/16 08:55:11;;;;;;;3.75;1.90;;;-1.10;99.90;;;-2.24;100.00;96683.78;4987358;28;20049;-34
2024/01/16 08:57:37;;;;;;;3.22;2.00;;;-1.10;99.90;;;-2.21;100.00;96678.63;4995339;28;20521;-35
2024/01/16 09:00:08;;;;;;;3.70;2.10;;;-1.00;99.90;;;-2.12;100.00;96682.13;4993574;28;20040;-35
2024/01/16 09:02:37;;;;;;;2.35;1.50;;;-1.00;99.90;;;-2.04;100.00;96676.94;4998289;28;20072;-35
2024/01/16 09:05:03;;;;;;;4.57;1.90;;;-0.90;99.90;;;-1.94;100.00;96677.81;4999316;28;20184;-35
2024/01/16 09:07:28;;;;;;;2.97;1.80;;;-0.80;99.90;;;-1.89;100.00;96681.25;5004088;28;20907;-35
2024/01/16 09:09:54;;;;;;;3.47;1.98;;;-0.80;99.90;;;-1.83;100.00;96676.09;5000669;28;20060;-35
2024/01/16 09:12:20;;;;;;;2.83;1.65;;;-0.70;99.90;;;-1.74;100.00;96677.84;4999085;28;20427;-35
2024/01/16 09:14:46;;;;;;;6.72;1.90;;;-0.60;99.90;;;-1.63;100.00;96678.69;5004553;28;20029;-35
2024/01/16 09:17:12;;;;;;;3.92;1.80;;;-0.50;99.90;;;-1.55;100.00;96681.25;4997415;28;21088;-36
2024/01/16 09:19:38;;;;;;;5.85;1.58;;;-0.50;99.90;;;-1.57;100.00;96664.88;4996621;28;20479;-35
2024/01/16 09:22:03;;;;;;;3.90;1.80;;;-0.40;99.90;;;-1.54;100.00;96673.50;4995599;28;20041;-35
2024/01/16 09:24:30;;;;;;;4.13;1.73;;;-0.40;99.90;;;-1.50;100.00;96663.16;4997058;28;20483;-36
2024/01/16 09:26:58;;;;;;;6.93;2.10;;;-0.40;99.90;;;-1.52;97.40;96673.50;4996901;28;20041;-35
2024/01/16 09:29:24;;;;;;;3.42;1.90;;;-0.40;99.90;;;-1.51;98.17;96680.38;5002386;28;20069;-35
2024/01/16 09:31:50;;;;;;;6.47;2.50;;;-0.40;99.90;;;-1.48;100.00;96682.97;4992869;28;20062;-36
2024/01/16 09:34:17;;;;;;;2.80;1.85;;;-0.40;99.90;;;-1.41;99.54;96684.69;4982883;28;20441;-35
2024/01/16 09:36:42;;;;;;;3.30;1.63;;;-0.30;99.90;;;-1.30;97.50;96681.22;4993004;28;28412;-35
2024/01/16 09:39:08;;;;;;;3.70;2.10;;;-0.20;99.90;;;-1.23;95.97;96682.94;4992351;28;21727;-36
2024/01/16 09:41:38;;;;;;;3.53;1.80;;;-0.20;99.90;;;-1.16;96.39;96679.47;4993803;28;20060;-35
2024/01/16 09:44:05;;;;;;;4.78;2.13;;;0.00;99.90;;;-1.04;96.07;96678.56;4993469;28;20061;-35
2024/01/16 09:46:31;;;;;;;4.68;2.70;;;0.00;99.90;;;-0.91;92.37;96685.44;4995303;28;20034;-36
2024/01/16 09:49:01;;;;;;;3.50;1.75;;;0.20;99.90;;;-0.91;90.28;96671.66;4993765;28;20026;-35
2024/01/16 09:51:27;;;;;;;4.15;2.00;;;0.30;99.90;;;-0.71;90.97;96672.41;4996924;28;20034;-36
2024/01/16 09:53:53;;;;;;;4.18;2.00;;;0.40;99.90;;;-0.60;88.37;96681.00;4996105;28;20116;-35
2024/01/16 09:56:24;;;;;;;7.05;2.22;;;0.50;99.90;;;-0.42;88.39;96669.69;4994996;28;20398;-35
2024/01/16 09:58:57;;;;;;;5.47;2.10;;;0.60;99.90;;;-0.32;84.33;96678.28;4996242;28;20107;-38
2024/01/16 10:01:26;;;;;;;3.58;1.70;;;0.80;99.90;;;-0.18;82.67;96672.16;4996369;28;20073;-34
2024/01/16 10:03:52;;;;;;;5.72;1.70;;;0.90;99.90;;;-0.13;81.60;96665.19;4996511;28;20121;-35
2024/01/16 10:06:20;;;;;;;3.47;1.90;;;1.00;99.90;;;-0.04;81.64;96670.31;4996466;28;20038;-35
2024/01/16 10:08:46;;;;;;;4.57;1.63;;;1.10;99.90;;;0.08;84.94;96671.97;4992959;28;20045;-35